Observations for Trim Patrick St
| Time | AQI | Temp °C | Hum % | Pres Pa | CO μg/m³ | H₂S μg/m³ | NO μg/m³ | NO₂ μg/m³ | O₃ μg/m³ | SO₂ μg/m³ | PM1 μg/m³ | PM2.5 μg/m³ | PM10 μg/m³ |
|---|---|---|---|---|---|---|---|---|---|---|---|---|---|
| Thursday 6 August 2026 | |||||||||||||
| 06:44 | 2 | 12.8 | 78 | 38,460 | 0.32 | 0 | 3.38 | 10.94 | 25.09 | 0 | 2 | 5.34 | 5.88 |
| 06:43 | 2 | 12.8 | 78 | 38,460 | 0.33 | 0 | 3.38 | 10.16 | 30.36 | 0 | 2.86 | 6.06 | 6.67 |
| 06:42 | 2 | 12.8 | 77 | 38,460 | 0.32 | 0 | 3.37 | 12.37 | 29.97 | 0 | 2.86 | 6.1 | 6.71 |
| 06:41 | 2 | 12.8 | 77 | 38,460 | 0.33 | 0 | 3.51 | 11.3 | 22.27 | 0 | 2 | 6.15 | 6.76 |
| 06:40 | 2 | 12.8 | 78 | 38,460 | 0.33 | 0 | 3.49 | 9.99 | 27.58 | 0 | 2.86 | 6.06 | 6.66 |
| 06:39 | 2 | 12.8 | 78 | 38,460 | 0.34 | 0 | 3.49 | 12.69 | 25.99 | 0 | 2 | 6.06 | 6.67 |
| 06:38 | 2 | 12.8 | 78 | 38,460 | 0.33 | 0 | 3.42 | 9.64 | 28.05 | 0 | 2.86 | 6.06 | 6.67 |
| 06:37 | 2 | 12.8 | 78 | 38,460 | 0.32 | 0 | 3.49 | 11.97 | 26 | 0 | 2 | 5.34 | 5.87 |
| 06:36 | 2 | 12.8 | 78 | 38,460 | 0.34 | 0 | 3.49 | 12.17 | 22.65 | 0 | 2.86 | 5.37 | 5.91 |
| 06:35 | 2 | 12.7 | 78 | 38,460 | 0.34 | 0 | 3.49 | 10.8 | 28.47 | 0 | 2 | 4.63 | 5.1 |
| 06:34 | 2 | 12.8 | 78 | 38,460 | 0.33 | 0 | 3.42 | 12 | 25.59 | 0 | 2.86 | 6.02 | 6.62 |
| 06:33 | 2 | 12.7 | 78 | 38,460 | 0.35 | 0 | 3.48 | 12.3 | 23.53 | 0 | 2 | 5.32 | 5.85 |
| 06:32 | 2 | 12.7 | 78 | 38,460 | 0.35 | 0 | 3.4 | 15.23 | 32.19 | 0 | 2.86 | 5.32 | 5.85 |
| 06:31 | 2 | 12.7 | 79 | 38,460 | 0.34 | 0 | 3.38 | 9.06 | 29.83 | 0 | 2.86 | 5.31 | 5.84 |
| 06:30 | 2 | 12.7 | 78 | 38,460 | 0.35 | 0 | 3.47 | 13.38 | 26.19 | 0 | 2.86 | 6.73 | 7.4 |
| 06:29 | 2 | 12.7 | 79 | 38,460 | 0.35 | 0 | 3.48 | 12.35 | 27.35 | 0 | 2 | 5.29 | 5.81 |
| 06:28 | 2 | 12.7 | 79 | 38,460 | 0.35 | 0 | 3.54 | 12.21 | 26.02 | 0 | 2 | 5.29 | 5.82 |
| 06:27 | 2 | 12.7 | 79 | 38,460 | 0.36 | 0 | 3.53 | 16.53 | 30.4 | 0 | 2 | 6 | 6.59 |
| 06:26 | 2 | 12.7 | 79 | 38,460 | 0.35 | 0 | 3.47 | 11.59 | 27.55 | 0 | 2 | 5.31 | 5.84 |
| 06:25 | 2 | 12.7 | 79 | 38,460 | 0.36 | 0 | 3.38 | 10.82 | 26.64 | 0 | 2 | 5.3 | 5.83 |